Time;durP1;ratioP1;P1;durP2;ratioP2;P2;SDS_P1;SDS_P2;PMS_P1;PMS_P2;Temp;Humidity;BMP_temperature;BMP_pressure;BME280_temperature;BME280_humidity;BME280_pressure;Samples;Min_cycle;Max_cycle;Signal;HPM_P1;HPM_P2
2021/12/11 00:01:02;;;;;;;279.55;76.10;;;2.10;99.90;;;1.87;70.89;97609.19;6049508;23;20015;-79
2021/12/11 00:03:33;;;;;;;262.67;80.55;;;2.00;99.90;;;1.86;71.48;97614.81;6039997;23;20103;-79
2021/12/11 00:06:05;;;;;;;282.10;81.15;;;2.00;99.90;;;1.90;71.15;97614.03;6049839;23;20388;-82
2021/12/11 00:08:33;;;;;;;245.90;77.95;;;2.00;99.90;;;1.90;71.35;97608.69;6073294;23;20015;-81
2021/12/11 00:11:08;;;;;;;349.65;83.43;;;2.00;99.90;;;2.01;70.41;97609.66;6039480;23;20109;-82
2021/12/11 00:13:36;;;;;;;299.23;84.35;;;2.00;99.90;;;1.92;70.81;97609.25;6041110;23;20043;-82
2021/12/11 00:16:03;;;;;;;282.38;79.70;;;2.00;99.90;;;1.85;70.98;97608.63;6041091;23;20029;-82
2021/12/11 00:18:30;;;;;;;282.67;82.00;;;2.00;99.90;;;1.90;71.11;97614.03;6041583;23;20072;-82
2021/12/11 00:21:09;;;;;;;287.80;77.18;;;1.90;99.90;;;2.02;70.78;97611.28;6040987;23;20046;-82
2021/12/11 00:23:43;;;;;;;274.02;82.10;;;2.00;99.90;;;2.03;70.50;97612.06;6074479;23;20022;-81
2021/12/11 00:26:11;;;;;;;251.98;73.88;;;2.00;99.90;;;1.98;70.63;97612.00;6073959;23;20549;-82
2021/12/11 00:28:49;;;;;;;268.67;75.32;;;2.00;99.90;;;1.82;70.81;97614.47;6016398;23;20023;-82
2021/12/11 00:31:15;;;;;;;290.02;74.53;;;2.00;99.90;;;1.78;70.67;97640.09;6015842;23;20039;-82
2021/12/11 00:33:41;;;;;;;226.20;74.25;;;1.90;99.90;;;1.91;70.69;97665.69;6038980;23;20030;-82
2021/12/11 00:36:16;;;;;;;251.85;74.72;;;1.90;99.90;;;2.01;70.31;97668.50;6038229;23;20026;-81
2021/12/11 00:38:43;;;;;;;241.75;73.88;;;2.00;99.90;;;2.20;70.05;97673.56;6017295;23;20018;-81
2021/12/11 00:41:14;;;;;;;238.88;73.65;;;2.00;99.90;;;2.08;69.86;97692.38;6039419;23;20019;-82
2021/12/11 00:43:41;;;;;;;314.17;76.57;;;2.10;99.90;;;2.00;70.37;97700.84;6049024;23;20047;-81
2021/12/11 00:46:11;;;;;;;292.80;75.15;;;2.10;99.90;;;1.91;69.80;97705.81;6062592;23;20030;-82
2021/12/11 00:48:38;;;;;;;206.65;68.25;;;2.00;99.90;;;2.01;70.05;97710.47;6039501;23;20114;-81
2021/12/11 00:51:07;;;;;;;296.38;72.97;;;2.00;99.90;;;2.02;70.27;97709.44;6039963;23;20026;-81
2021/12/11 00:53:41;;;;;;;286.77;72.25;;;2.00;99.90;;;1.93;70.33;97695.66;6040695;23;20109;-81
2021/12/11 00:56:23;;;;;;;308.45;73.40;;;2.00;99.90;;;1.80;70.01;97701.34;6050052;23;20023;-82
2021/12/11 00:58:51;;;;;;;296.33;77.25;;;2.00;99.90;;;1.71;70.43;97701.75;6048583;23;20158;-82
2021/12/11 01:01:25;;;;;;;340.83;77.95;;;1.90;99.90;;;1.64;70.38;97697.63;6018056;23;20022;-79
2021/12/11 01:04:06;;;;;;;311.27;90.20;;;1.80;99.90;;;1.65;70.81;97708.06;6051960;23;20030;-79
2021/12/11 01:06:51;;;;;;;318.48;77.30;;;1.80;99.90;;;1.76;70.72;97705.56;6053245;23;20015;-79
2021/12/11 01:09:40;;;;;;;280.05;80.57;;;1.80;99.90;;;1.84;70.64;97710.50;6078882;23;20015;-79
2021/12/11 01:12:51;;;;;;;326.95;93.68;;;1.80;99.90;;;1.67;71.22;97713.16;6044487;23;20030;-79
2021/12/11 01:15:35;;;;;;;320.23;99.27;;;1.80;99.90;;;1.61;70.93;97722.16;6027154;23;20049;-79
2021/12/11 01:21:12;;;;;;;235.75;72.85;;;1.70;99.90;;;1.68;71.43;97720.13;6054881;23;20049;-80
2021/12/11 01:26:19;;;;;;;200.45;62.67;;;1.80;99.90;;;2.20;70.24;97729.75;6053530;23;20105;-79
2021/12/11 01:28:46;;;;;;;174.00;64.72;;;2.00;99.90;;;2.14;69.78;97728.88;6032442;23;20026;-79
2021/12/11 01:31:13;;;;;;;174.73;64.55;;;2.00;99.90;;;2.11;70.17;97746.22;6021966;23;20046;-82
2021/12/11 01:33:39;;;;;;;171.60;56.85;;;2.10;99.90;;;2.26;69.73;97742.94;6067292;23;20033;-82
2021/12/11 01:36:06;;;;;;;180.32;63.03;;;2.20;99.90;;;2.39;68.96;97739.94;6041694;23;20118;-81
2021/12/11 01:38:33;;;;;;;144.43;53.80;;;2.20;99.90;;;2.44;68.95;97749.06;6019662;23;20122;-79
2021/12/11 01:41:05;;;;;;;152.05;54.67;;;2.30;99.90;;;2.45;68.74;97750.72;6068545;23;20019;-79
2021/12/11 01:43:31;;;;;;;;;;;2.40;99.90;;;2.39;68.51;97747.97;6045390;23;20026;-79
2021/12/11 01:45:59;;;;;;;168.35;59.90;;;2.40;99.90;;;2.37;68.77;97747.41;6045101;23;19941;-79
2021/12/11 01:48:32;;;;;;;152.95;55.33;;;2.40;99.90;;;2.44;68.30;97754.44;6021132;23;20366;-79
2021/12/11 01:51:10;;;;;;;171.30;61.33;;;2.40;99.90;;;2.36;69.16;97753.78;6054602;23;20394;-79
2021/12/11 01:53:41;;;;;;;166.77;59.67;;;2.40;99.90;;;2.38;68.69;97756.22;6054823;23;20102;-79
2021/12/11 01:56:14;;;;;;;197.98;67.10;;;2.40;99.90;;;2.30;68.43;97754.78;6053251;23;20030;-79
2021/12/11 01:58:44;;;;;;;271.10;71.38;;;2.40;99.90;;;2.30;68.84;97757.47;6041701;23;20102;-79
2021/12/11 02:01:33;;;;;;;248.43;76.70;;;2.40;99.90;;;2.13;68.56;97754.00;6052638;23;20058;-79
2021/12/11 02:04:00;;;;;;;255.27;72.78;;;2.40;99.90;;;1.96;69.32;97748.66;6045875;23;20023;-79
2021/12/11 02:06:32;;;;;;;241.93;71.82;;;2.30;99.90;;;2.11;68.98;97766.78;6044294;23;20055;-79
2021/12/11 02:08:57;;;;;;;;;;;2.20;99.90;;;1.98;69.33;97769.81;6052605;23;20031;-79
2021/12/11 02:11:26;;;;;;;262.92;77.40;;;2.10;99.90;;;1.85;69.69;97766.41;6068589;23;20235;-79
2021/12/11 02:13:58;;;;;;;259.80;73.05;;;2.00;99.90;;;1.80;69.64;97773.53;6044252;23;20399;-79
2021/12/11 02:16:44;;;;;;;287.20;84.28;;;2.00;99.90;;;1.88;69.63;97784.66;6054426;23;20042;-79
2021/12/11 02:19:19;;;;;;;248.98;71.53;;;1.90;99.90;;;2.03;69.53;97792.09;6053325;23;20023;-79
2021/12/11 02:22:13;;;;;;;255.32;75.93;;;2.00;99.90;;;2.05;69.68;97791.84;6053369;23;20014;-79
2021/12/11 02:24:49;;;;;;;301.65;75.40;;;2.00;99.90;;;2.06;69.31;97788.94;6069432;23;20078;-79
2021/12/11 02:27:20;;;;;;;225.70;74.13;;;2.10;99.90;;;2.11;69.24;97789.03;6020758;23;20042;-79
2021/12/11 02:30:07;;;;;;;216.02;64.15;;;2.20;99.90;;;2.13;69.31;97791.44;6054744;23;20019;-79
2021/12/11 02:32:41;;;;;;;253.52;69.70;;;2.20;99.90;;;2.22;68.55;97795.34;6070698;23;20094;-80
2021/12/11 02:35:37;;;;;;;256.92;73.18;;;2.20;99.90;;;2.11;68.92;97802.41;6052990;23;20015;-79
2021/12/11 02:38:17;;;;;;;300.25;77.72;;;2.20;99.90;;;2.10;68.90;97805.31;6053151;23;20067;-80
2021/12/11 02:40:59;;;;;;;254.80;70.72;;;2.10;99.90;;;1.99;68.94;97808.88;6067950;23;20029;-80
2021/12/11 02:43:38;;;;;;;323.10;75.20;;;2.10;99.90;;;1.88;69.55;97822.09;6046939;23;20154;-79
2021/12/11 02:46:25;;;;;;;260.48;67.78;;;2.00;99.90;;;2.07;69.23;97816.50;6078523;23;20107;-79
2021/12/11 02:49:18;;;;;;;230.90;70.97;;;2.00;99.90;;;2.13;69.02;97819.00;6056094;23;20037;-79
2021/12/11 02:52:06;;;;;;;245.15;68.30;;;2.00;99.90;;;2.20;68.72;97826.06;6032002;23;20026;-80
2021/12/11 02:54:50;;;;;;;214.45;65.43;;;2.10;99.90;;;2.20;69.05;97823.41;6048969;23;20078;-79
2021/12/11 02:57:34;;;;;;;225.07;68.25;;;2.20;99.90;;;2.11;69.31;97825.66;6047081;23;20022;-79
2021/12/11 03:00:22;;;;;;;281.63;74.63;;;2.20;99.90;;;2.07;69.15;97833.38;6055804;23;20368;-79
2021/12/11 03:02:51;;;;;;;268.20;71.97;;;2.30;99.90;;;1.99;69.28;97830.28;6055732;23;20094;-80
2021/12/11 03:05:21;;;;;;;252.48;72.93;;;2.20;99.90;;;1.88;69.40;97838.13;6046253;23;20467;-79
2021/12/11 03:07:52;;;;;;;257.02;80.13;;;2.20;99.90;;;2.09;69.17;97835.81;6047783;23;20051;-80
2021/12/11 03:10:23;;;;;;;269.00;75.70;;;2.10;99.90;;;2.13;69.04;97834.25;6056494;23;20019;-80
2021/12/11 03:12:49;;;;;;;285.00;79.27;;;2.10;99.90;;;2.07;69.38;97840.59;6045538;23;20094;-79
2021/12/11 03:15:16;;;;;;;266.65;73.75;;;2.10;99.90;;;2.15;69.16;97848.19;6045446;23;20243;-80
2021/12/11 03:17:43;;;;;;;282.75;71.70;;;2.10;99.90;;;2.29;68.99;97843.31;6044590;23;20066;-79
2021/12/11 03:20:12;;;;;;;330.15;77.05;;;2.20;99.90;;;2.41;68.71;97829.88;6044163;23;20045;-80
2021/12/11 03:22:40;;;;;;;286.35;72.90;;;2.20;99.90;;;2.38;68.68;97840.00;6019495;23;20545;-80
2021/12/11 03:25:13;;;;;;;258.20;69.75;;;2.30;99.90;;;2.42;68.82;97832.31;6043881;23;20022;-79
2021/12/11 03:27:39;;;;;;;248.02;69.35;;;2.30;99.90;;;2.41;68.83;97835.22;6077640;23;20054;-79
2021/12/11 03:30:08;;;;;;;263.05;70.50;;;2.30;99.90;;;2.45;68.26;97837.19;6045550;23;20074;-79
2021/12/11 03:32:35;;;;;;;243.93;67.97;;;2.40;99.90;;;2.44;68.30;97837.41;6045022;23;20714;-79
2021/12/11 03:35:01;;;;;;;260.50;71.93;;;2.40;99.90;;;2.42;68.72;97834.16;6068704;23;20033;-79
2021/12/11 03:37:27;;;;;;;294.23;74.38;;;2.40;99.90;;;2.42;68.78;97835.00;6044634;23;20046;-79
2021/12/11 03:39:54;;;;;;;266.58;70.72;;;2.40;99.90;;;2.50;68.70;97834.56;6046232;23;20495;-80
2021/12/11 03:42:41;;;;;;;252.07;67.65;;;2.40;99.90;;;2.47;68.12;97840.44;6046272;23;20545;-80
2021/12/11 03:45:18;;;;;;;272.17;70.88;;;2.50;99.90;;;2.37;68.38;97838.41;6053476;23;20047;-79
2021/12/11 03:47:53;;;;;;;241.60;67.03;;;2.50;99.90;;;2.40;68.69;97842.44;6045370;23;20395;-79
2021/12/11 03:50:20;;;;;;;238.65;63.67;;;2.40;99.90;;;2.43;68.09;97846.50;6056431;23;20061;-79
2021/12/11 03:52:47;;;;;;;202.95;59.65;;;2.40;99.90;;;2.37;67.97;97851.78;6044868;23;20015;-80
2021/12/11 03:55:19;;;;;;;890.65;101.32;;;2.40;99.90;;;2.32;69.12;97850.91;6046392;23;20023;-80
2021/12/11 03:57:45;;;;;;;360.63;67.82;;;2.30;99.90;;;2.32;69.00;97854.38;6046629;23;20052;-80
2021/12/11 04:00:17;;;;;;;203.55;59.42;;;2.30;99.90;;;2.34;68.77;97851.44;6046688;23;20023;-80
2021/12/11 04:02:44;;;;;;;194.07;60.95;;;2.40;99.90;;;2.27;69.03;97854.28;6032663;23;20034;-79
2021/12/11 04:05:10;;;;;;;171.27;55.75;;;2.40;99.90;;;2.22;68.81;97859.56;6046147;23;20043;-80
2021/12/11 04:07:43;;;;;;;164.30;58.10;;;2.40;99.90;;;2.46;68.35;97844.13;6045870;23;20030;-80
2021/12/11 04:10:12;;;;;;;165.60;57.15;;;2.40;99.90;;;2.45;68.08;97847.06;6054559;23;20049;-80
2021/12/11 04:12:38;;;;;;;160.85;54.17;;;2.40;99.90;;;2.36;68.34;97852.81;6046299;23;20720;-80
2021/12/11 04:15:05;;;;;;;174.52;56.88;;;2.40;99.90;;;2.27;68.48;97861.50;6046312;23;20019;-80
2021/12/11 04:17:31;;;;;;;164.43;56.30;;;2.40;99.90;;;2.25;68.56;97872.44;6045839;23;20402;-80
2021/12/11 04:20:00;;;;;;;149.40;53.42;;;2.40;99.90;;;2.26;68.23;97868.72;6045418;23;20078;-79
2021/12/11 04:22:27;;;;;;;160.52;53.83;;;2.30;99.90;;;2.26;68.35;97870.56;6021767;23;20080;-80
2021/12/11 04:24:53;;;;;;;166.27;55.47;;;2.30;99.90;;;2.30;68.67;97869.06;6043090;23;20135;-80
2021/12/11 04:27:20;;;;;;;166.60;58.95;;;2.30;99.90;;;2.32;68.69;97867.75;6045072;23;20105;-80
2021/12/11 04:29:49;;;;;;;158.77;52.40;;;2.40;99.90;;;2.44;68.33;97870.34;6043744;23;20018;-79
2021/12/11 04:32:15;;;;;;;165.45;56.40;;;2.40;99.90;;;2.38;68.05;97877.47;6042346;23;20321;-80
2021/12/11 04:34:41;;;;;;;153.82;56.60;;;2.40;99.90;;;2.42;68.13;97875.16;6050085;23;20569;-80
2021/12/11 04:37:16;;;;;;;149.98;50.17;;;2.40;99.90;;;2.49;68.15;97877.63;6040082;23;20023;-79
2021/12/11 04:39:46;;;;;;;146.00;53.08;;;2.40;99.90;;;2.60;68.12;97887.47;6041518;23;20085;-79
2021/12/11 04:42:27;;;;;;;157.43;53.83;;;2.40;99.90;;;2.65;67.63;97892.09;6041864;23;20309;-79
2021/12/11 04:44:53;;;;;;;155.50;51.67;;;2.50;99.90;;;2.58;67.40;97894.94;6052538;23;20158;-80
2021/12/11 04:47:53;;;;;;;147.02;50.47;;;2.50;99.90;;;2.50;67.99;97903.38;6040150;23;20043;-80
2021/12/11 04:50:26;;;;;;;150.50;52.47;;;2.50;99.90;;;2.55;67.80;97906.13;6045414;23;20105;-80
2021/12/11 04:52:55;;;;;;;139.57;50.45;;;2.50;99.90;;;2.59;67.32;97917.97;6055123;23;20583;-80
2021/12/11 04:55:48;;;;;;;144.98;50.97;;;2.50;99.90;;;2.63;67.65;97924.47;6043572;23;20019;-79
2021/12/11 04:58:39;;;;;;;143.10;51.30;;;2.60;99.90;;;2.57;67.80;97918.22;6046622;23;20019;-80
2021/12/11 05:06:54;;;;;;;158.82;53.70;;;2.70;99.90;;;2.69;67.06;97939.53;6076839;23;20427;-80
2021/12/11 05:09:25;;;;;;;152.57;54.05;;;2.70;99.90;;;2.63;67.17;97935.16;6044659;23;20023;-80
2021/12/11 05:12:14;;;;;;;150.57;54.00;;;2.60;99.90;;;2.53;67.18;97941.16;6080082;23;20093;-80
2021/12/11 05:14:42;;;;;;;146.70;54.55;;;2.50;99.90;;;2.55;67.08;97938.25;6055939;23;20090;-80
2021/12/11 05:17:08;;;;;;;142.50;53.08;;;2.50;99.90;;;2.48;66.67;97946.44;6068432;23;20128;-80
2021/12/11 05:19:34;;;;;;;144.82;54.15;;;2.50;99.90;;;2.44;67.23;97952.50;6069622;23;20034;-80
2021/12/11 05:22:00;;;;;;;147.95;56.28;;;2.50;99.90;;;2.45;66.90;97957.63;6021226;23;20019;-80
2021/12/11 05:24:26;;;;;;;141.88;52.63;;;2.50;99.90;;;2.47;66.92;97955.53;6042869;23;20078;-80
2021/12/11 05:26:55;;;;;;;144.30;53.58;;;2.40;99.90;;;2.48;66.85;97954.47;6044238;23;20427;-80
2021/12/11 05:29:21;;;;;;;124.85;50.80;;;2.40;99.90;;;2.42;66.66;97960.78;6044740;23;20018;-80
2021/12/11 05:31:47;;;;;;;148.55;53.60;;;2.40;99.90;;;2.39;67.22;97964.75;6020805;23;20110;-80
2021/12/11 05:34:13;;;;;;;137.65;51.50;;;2.40;99.90;;;2.41;67.08;97958.34;6043161;23;20048;-78
2021/12/11 05:36:39;;;;;;;132.27;52.50;;;2.40;99.90;;;2.45;67.03;97956.81;6038258;23;20039;-78
2021/12/11 05:39:10;;;;;;;142.98;54.20;;;2.40;99.90;;;2.53;66.55;97945.72;6063113;23;20019;-79
2021/12/11 05:41:36;;;;;;;126.93;50.72;;;2.40;99.90;;;2.51;66.28;97955.84;6048488;23;20029;-81
2021/12/11 05:44:02;;;;;;;135.00;52.97;;;2.40;99.90;;;2.49;66.39;97971.34;6038840;23;20019;-81
2021/12/11 05:46:28;;;;;;;138.38;53.00;;;2.40;99.90;;;2.42;66.14;97970.66;6063100;23;20050;-81
2021/12/11 05:48:54;;;;;;;141.32;51.80;;;2.40;99.90;;;2.34;66.83;97983.41;6041631;23;20065;-81
2021/12/11 05:51:22;;;;;;;130.60;50.13;;;2.40;99.90;;;2.27;66.09;97993.44;6040494;23;20358;-81
2021/12/11 05:53:51;;;;;;;129.82;49.95;;;2.40;99.90;;;2.32;66.17;97998.09;6039968;23;20107;-81
2021/12/11 05:56:17;;;;;;;137.10;52.15;;;2.30;99.90;;;2.16;66.75;97999.66;6038079;23;20391;-80
2021/12/11 05:58:56;;;;;;;139.05;54.25;;;2.30;99.90;;;2.11;66.50;98003.06;6039699;23;20485;-81
2021/12/11 06:01:42;;;;;;;144.25;54.85;;;2.20;99.90;;;2.06;66.46;98000.28;6050325;23;20341;-82
2021/12/11 06:04:17;;;;;;;143.07;52.03;;;2.20;99.90;;;2.00;66.63;98000.41;6014906;23;20443;-82
2021/12/11 06:06:43;;;;;;;140.80;51.30;;;2.10;99.90;;;1.93;66.96;98006.72;6049144;23;20074;-82
2021/12/11 06:09:12;;;;;;;133.82;52.17;;;2.10;99.90;;;1.99;66.43;98001.47;6039345;23;20050;-82
2021/12/11 06:11:38;;;;;;;132.55;50.70;;;2.00;99.90;;;1.97;66.62;98012.41;6014533;23;20018;-82
2021/12/11 06:14:04;;;;;;;142.07;50.88;;;2.00;99.90;;;1.95;65.93;98017.16;6038768;23;20050;-82
2021/12/11 06:16:30;;;;;;;127.53;50.13;;;1.90;99.90;;;1.90;65.84;98031.25;6038441;23;20430;-82
2021/12/11 06:19:02;;;;;;;146.70;52.90;;;1.90;99.90;;;1.89;65.18;98028.81;6039818;23;20015;-82
2021/12/11 06:21:29;;;;;;;143.98;53.22;;;1.80;99.90;;;1.82;64.77;98030.81;6050870;23;20435;-82
2021/12/11 06:23:55;;;;;;;134.15;52.03;;;1.70;99.90;;;1.65;64.88;98028.84;6038694;23;20391;-82
2021/12/11 06:26:22;;;;;;;151.75;56.95;;;1.50;99.90;;;1.52;64.49;98021.88;6040150;23;20118;-82
2021/12/11 06:28:48;;;;;;;160.27;56.33;;;1.50;99.90;;;1.33;64.61;98031.09;6036724;23;20023;-82
2021/12/11 06:31:18;;;;;;;158.25;56.80;;;1.40;99.90;;;1.19;65.17;98043.06;6035981;23;20050;-82
2021/12/11 06:33:50;;;;;;;167.40;58.95;;;1.20;99.90;;;1.07;65.20;98040.38;6028386;23;20027;-82
2021/12/11 06:36:18;;;;;;;164.23;57.75;;;1.10;99.90;;;0.90;65.14;98042.09;6037988;23;20025;-82
2021/12/11 06:38:46;;;;;;;183.82;61.22;;;0.90;99.90;;;0.73;65.79;98049.94;6039689;23;20018;-81
2021/12/11 06:41:14;;;;;;;171.00;56.97;;;0.80;99.90;;;0.53;66.44;98058.25;6012899;23;20146;-82
2021/12/11 06:43:41;;;;;;;180.65;60.58;;;0.70;99.90;;;0.42;66.31;98065.16;6034615;23;20019;-82
2021/12/11 06:46:08;;;;;;;177.13;63.70;;;0.60;99.90;;;0.38;66.62;98077.31;6033502;23;20180;-82
2021/12/11 06:48:34;;;;;;;179.50;63.92;;;0.50;99.90;;;0.33;66.30;98082.53;6035550;23;20022;-82
2021/12/11 06:51:01;;;;;;;174.20;62.35;;;0.40;99.90;;;0.20;66.49;98079.00;6035958;23;20038;-82
2021/12/11 06:53:37;;;;;;;164.48;59.67;;;0.40;99.90;;;0.07;66.78;98081.81;6032122;23;20027;-81
2021/12/11 06:56:06;;;;;;;188.52;62.80;;;0.30;99.90;;;0.05;67.02;98086.56;6065793;23;20491;-82
2021/12/11 06:58:35;;;;;;;183.30;65.35;;;0.20;99.90;;;0.00;67.20;98094.44;6033987;23;20405;-82
2021/12/11 07:01:01;;;;;;;205.38;68.95;;;0.10;99.90;;;-0.06;66.91;98095.31;6056079;23;20515;-82
2021/12/11 07:03:28;;;;;;;216.00;72.60;;;0.10;99.90;;;-0.07;66.71;98093.69;6007957;23;20023;-82
2021/12/11 07:05:54;;;;;;;199.52;69.20;;;0.10;99.90;;;-0.01;66.84;98100.78;6031214;23;20018;-82
2021/12/11 07:08:22;;;;;;;199.38;67.10;;;0.10;99.90;;;-0.12;67.63;98096.19;6035401;23;20030;-82
2021/12/11 07:10:49;;;;;;;238.02;75.95;;;0.00;99.90;;;-0.27;67.97;98117.88;6013352;23;20022;-80
2021/12/11 07:13:15;;;;;;;213.73;67.90;;;0.00;99.90;;;-0.16;68.14;98129.66;6011483;23;20026;-79
2021/12/11 07:15:42;;;;;;;213.18;72.82;;;-0.10;99.90;;;-0.04;68.25;98126.03;6032769;23;20042;-81
2021/12/11 07:18:08;;;;;;;180.35;65.22;;;0.00;99.90;;;-0.03;67.38;98126.84;6014521;23;20034;-81
2021/12/11 07:20:34;;;;;;;219.32;76.35;;;0.00;99.90;;;0.02;66.92;98128.84;6059725;23;20393;-81
2021/12/11 07:23:00;;;;;;;179.82;72.07;;;0.00;99.90;;;0.05;67.56;98134.56;6033744;23;20023;-81
2021/12/11 07:25:50;;;;;;;206.98;74.03;;;0.00;99.90;;;0.16;67.52;98147.16;6059100;23;20561;-81
2021/12/11 07:28:17;;;;;;;203.88;70.28;;;0.10;99.90;;;0.26;68.15;98156.50;6047561;23;20046;-81
2021/12/11 07:30:45;;;;;;;201.85;71.88;;;0.30;99.90;;;0.36;68.71;98157.59;6035586;23;20073;-81
2021/12/11 07:33:14;;;;;;;174.98;64.95;;;0.40;99.90;;;0.48;68.90;98157.66;6011320;23;20029;-81
2021/12/11 07:35:41;;;;;;;177.82;64.95;;;0.60;99.90;;;0.74;68.63;98161.00;6034686;23;20469;-81
2021/12/11 07:38:07;;;;;;;189.32;67.93;;;0.70;99.90;;;0.90;68.41;98164.94;6036499;23;20057;-81
2021/12/11 07:40:48;;;;;;;183.80;62.92;;;0.90;99.90;;;1.02;68.79;98171.94;6013319;23;20022;-81
2021/12/11 07:43:16;;;;;;;171.98;63.85;;;1.00;99.90;;;1.21;68.81;98166.53;6068370;23;20070;-81
2021/12/11 07:45:42;;;;;;;174.90;62.33;;;1.20;99.90;;;1.35;68.13;98177.81;6032270;23;20023;-81
2021/12/11 07:48:08;;;;;;;214.75;71.47;;;1.40;99.90;;;1.40;67.86;98173.44;6059907;23;20291;-81
2021/12/11 07:50:35;;;;;;;223.20;66.82;;;1.50;99.90;;;1.48;67.82;98166.94;6034981;23;20022;-81
2021/12/11 07:53:01;;;;;;;193.43;67.97;;;1.60;99.90;;;1.57;68.30;98159.38;6058898;23;20026;-81
2021/12/11 07:55:26;;;;;;;233.05;75.80;;;1.80;99.90;;;1.65;67.61;98156.38;6033944;23;20234;-81
2021/12/11 07:57:53;;;;;;;266.85;74.68;;;1.90;99.90;;;1.77;67.51;98153.72;6035921;23;20054;-81
2021/12/11 08:00:23;;;;;;;255.35;83.28;;;2.00;99.90;;;1.85;67.29;98166.72;6035513;23;20035;-81
2021/12/11 08:02:49;;;;;;;217.43;76.97;;;2.10;99.90;;;2.03;67.83;98177.28;6034506;23;20042;-81
2021/12/11 08:05:15;;;;;;;205.43;70.03;;;2.20;99.90;;;2.24;67.38;98186.59;6010839;23;20018;-81
2021/12/11 08:07:41;;;;;;;185.27;65.28;;;2.40;99.90;;;2.39;67.12;98178.91;6034011;23;20424;-82
2021/12/11 08:10:15;;;;;;;205.48;65.20;;;2.50;99.90;;;2.53;66.63;98192.00;6034912;23;20030;-81
2021/12/11 08:12:42;;;;;;;174.35;61.78;;;2.70;99.90;;;2.69;66.39;98201.16;6043852;23;20398;-81
2021/12/11 08:15:09;;;;;;;176.48;59.30;;;2.90;99.90;;;2.94;65.87;98208.91;6008872;23;20554;-81
2021/12/11 08:17:35;;;;;;;181.93;59.78;;;3.00;99.90;;;3.05;65.33;98221.41;6034513;23;20045;-82
2021/12/11 08:20:01;;;;;;;162.35;54.90;;;3.20;99.90;;;3.02;65.48;98222.72;6034435;23;20050;-81
2021/12/11 08:22:27;;;;;;;189.68;59.50;;;3.30;99.90;;;3.12;65.02;98223.97;6057280;23;20109;-82
2021/12/11 08:24:53;;;;;;;201.73;65.55;;;3.30;99.90;;;3.27;64.47;98224.25;6034314;23;20114;-81
2021/12/11 08:27:21;;;;;;;170.70;60.67;;;3.50;99.90;;;3.43;64.43;98234.19;6060239;23;20122;-79
2021/12/11 08:29:50;;;;;;;176.70;63.20;;;3.70;99.90;;;3.55;64.00;98233.31;6036465;23;20027;-79
2021/12/11 08:32:16;;;;;;;169.82;60.92;;;3.80;99.90;;;3.58;63.22;98248.94;6037509;23;20019;-79
2021/12/11 08:34:43;;;;;;;163.07;60.30;;;3.80;99.90;;;3.61;62.94;98251.97;6060764;23;20497;-81
2021/12/11 08:37:11;;;;;;;212.52;55.15;;;3.80;99.90;;;3.79;61.85;98261.66;6034917;23;20081;-82
2021/12/11 08:39:37;;;;;;;160.02;55.30;;;3.80;99.90;;;3.84;62.28;98266.25;6060421;23;20074;-82
2021/12/11 08:42:05;;;;;;;142.20;57.95;;;3.90;99.90;;;4.03;62.00;98272.22;6036895;23;20464;-82
2021/12/11 08:44:35;;;;;;;139.48;56.75;;;4.00;99.90;;;4.14;62.19;98279.38;6035807;23;20070;-82
2021/12/11 08:47:05;;;;;;;149.82;57.47;;;4.20;99.90;;;4.57;60.65;98285.91;6037616;23;20019;-82
2021/12/11 08:49:36;;;;;;;137.90;55.00;;;4.50;99.90;;;4.76;60.05;98281.91;6012981;23;20093;-82
2021/12/11 08:52:21;;;;;;;128.88;53.22;;;4.80;99.90;;;4.90;59.60;98284.22;6045880;23;20018;-82
2021/12/11 08:54:48;;;;;;;124.22;53.08;;;5.10;99.90;;;4.97;60.04;98292.91;6043970;23;20408;-82
2021/12/11 08:57:20;;;;;;;127.15;52.58;;;5.20;99.90;;;5.08;59.41;98291.97;6034725;23;20041;-82
2021/12/11 08:59:50;;;;;;;144.10;56.53;;;5.30;99.90;;;5.17;59.31;98297.72;6034715;23;20018;-82
2021/12/11 09:02:36;;;;;;;153.85;54.47;;;5.50;99.90;;;5.14;57.93;98295.50;6034159;23;20089;-82
2021/12/11 09:05:18;;;;;;;122.60;48.50;;;5.50;99.90;;;5.15;57.54;98306.03;6045255;23;20026;-82
2021/12/11 09:07:52;;;;;;;120.65;48.58;;;5.40;99.90;;;5.12;57.87;98313.78;6044012;23;20057;-82
2021/12/11 09:10:35;;;;;;;108.57;48.35;;;5.30;99.90;;;5.12;57.77;98311.91;6067051;23;20023;-82
2021/12/11 09:13:21;;;;;;;133.65;53.65;;;5.30;99.90;;;5.29;58.03;98314.53;6034977;23;20117;-82
2021/12/11 09:16:12;;;;;;;110.88;47.17;;;5.40;99.90;;;5.39;57.32;98311.13;6044724;23;20026;-82
2021/12/11 09:19:00;;;;;;;112.22;46.40;;;5.60;99.90;;;5.50;57.48;98312.09;6060293;23;20065;-82
2021/12/11 09:21:56;;;;;;;119.68;48.63;;;5.60;99.90;;;5.57;57.68;98315.38;6037455;23;20131;-82
2021/12/11 09:24:35;;;;;;;108.18;47.85;;;5.80;99.90;;;5.75;57.02;98317.72;6067389;23;20045;-82
2021/12/11 09:27:03;;;;;;;113.18;47.47;;;5.90;99.90;;;5.70;57.18;98328.44;6043695;23;20070;-81
2021/12/11 09:29:58;;;;;;;110.72;49.72;;;6.00;99.90;;;5.69;56.24;98332.19;6079702;23;20029;-81
2021/12/11 09:33:07;;;;;;;109.63;47.88;;;6.10;99.90;;;5.47;55.72;98347.53;6061161;23;20042;-80
2021/12/11 09:35:38;;;;;;;123.75;52.05;;;6.00;99.90;;;5.42;55.84;98349.13;6053884;23;20118;-80
2021/12/11 09:38:10;;;;;;;134.93;51.65;;;5.80;99.90;;;5.21;55.86;98356.09;6036544;23;20018;-80
2021/12/11 09:40:39;;;;;;;140.45;54.80;;;5.60;99.90;;;5.10;57.09;98353.56;6018692;23;20023;-80
2021/12/11 09:43:06;;;;;;;133.30;51.60;;;5.50;99.90;;;5.20;57.16;98359.88;6076554;23;20473;-80
2021/12/11 09:45:40;;;;;;;136.05;52.75;;;5.50;99.90;;;5.39;56.60;98357.69;6056663;23;20023;-80
2021/12/11 09:48:15;;;;;;;143.25;56.35;;;5.60;99.90;;;5.35;56.09;98364.63;6042729;23;20038;-80
2021/12/11 09:50:53;;;;;;;121.50;50.83;;;5.70;99.90;;;5.25;56.09;98361.00;6042320;23;20355;-80
2021/12/11 09:53:22;;;;;;;138.60;55.30;;;5.60;99.90;;;5.29;56.59;98368.34;6022113;23;20110;-81
2021/12/11 09:55:48;;;;;;;124.88;52.42;;;5.60;99.90;;;5.46;56.28;98376.31;6033458;23;20027;-80
2021/12/11 09:58:19;;;;;;;117.35;50.15;;;5.70;99.90;;;5.72;56.66;98382.00;6055659;23;20023;-78
2021/12/11 10:01:03;;;;;;;107.83;45.67;;;5.90;99.90;;;5.75;56.28;98387.72;6019635;23;20049;-80
2021/12/11 10:03:39;;;;;;;122.65;48.33;;;6.00;99.90;;;5.92;55.85;98390.28;6065852;23;20019;-81
2021/12/11 10:06:25;;;;;;;114.28;48.00;;;6.20;99.90;;;6.05;55.32;98386.41;6043297;23;20432;-81
2021/12/11 10:09:07;;;;;;;119.90;49.10;;;6.30;99.90;;;6.19;54.71;98376.88;6047591;23;20023;-81
2021/12/11 10:11:33;;;;;;;111.28;50.75;;;6.40;99.90;;;6.32;55.21;98372.94;6048999;23;20164;-81
2021/12/11 10:14:12;;;;;;;115.70;50.63;;;6.60;99.90;;;6.03;54.60;98369.69;6057829;23;20380;-81
2021/12/11 10:16:43;;;;;;;124.28;55.28;;;6.60;99.90;;;5.60;55.88;98374.88;6009416;23;20023;-81
2021/12/11 10:19:10;;;;;;;131.25;58.05;;;6.40;99.90;;;5.53;56.68;98393.09;6043290;23;20470;-80
2021/12/11 10:21:41;;;;;;;140.95;57.47;;;6.20;99.90;;;5.68;55.83;98389.78;6032827;23;20041;-81
2021/12/11 10:24:13;;;;;;;122.00;51.40;;;6.10;99.90;;;5.82;55.63;98392.88;6040986;23;20106;-81
2021/12/11 10:26:39;;;;;;;115.70;52.38;;;6.10;99.90;;;5.94;54.90;98390.88;6066074;23;20019;-81
2021/12/11 10:29:09;;;;;;;113.00;48.17;;;6.20;99.90;;;6.07;55.38;98390.47;6033744;23;20484;-80
2021/12/11 10:31:49;;;;;;;123.55;55.97;;;6.30;99.90;;;6.10;55.61;98402.63;6067813;23;20050;-80
2021/12/11 10:34:18;;;;;;;147.38;56.97;;;6.30;99.90;;;6.11;55.97;98400.72;6022235;23;20596;-81
2021/12/11 10:36:54;;;;;;;113.95;51.53;;;6.40;99.90;;;6.18;55.86;98404.88;6035116;23;20077;-81
2021/12/11 10:39:21;;;;;;;123.15;52.05;;;6.40;99.90;;;6.19;55.18;98411.06;6069378;23;20023;-81
2021/12/11 10:41:48;;;;;;;129.73;56.58;;;6.50;99.90;;;6.17;55.54;98405.94;6057620;23;20109;-81
2021/12/11 10:44:27;;;;;;;128.63;57.58;;;6.50;99.90;;;6.17;55.35;98403.22;6036074;23;20018;-80